Aviation Digital Data Service (ADDS)

Output produced by METARs form (0714 UTC 23 September 2017)
found at http://www.aviationweather.gov/adds/metars/
 
METAR text: EHGG 230655Z AUTO 00000KT 6000 NSC 09/09 Q1024 BECMG 8000
Conditions at: EHGG (GRONINGEN/EELDE , NL) observed 0655 UTC 23 September 2017
Temperature: 9.0°C (48°F)
Dewpoint: 9.0°C (48°F) [RH = 100%]
Pressure (altimeter): 30.24 inches Hg (1024.0 mb)
Winds: calm
Visibility: 4 miles (6 km)
Ceiling: at least 12,000 feet AGL
Clouds: sky clear below 12,000 feet AGL
Weather: no significant weather observed at this time